Terminal Aerodrome Forecast
Issued by NWS

Home | Current Version | Previous Version | Text Only | Print | Product List | Glossary On
Versions: 1 2 3 4 5 6 7 8 9 10 11 12 13
000
FTUS42 KTBW 162332
TAFPIE
TAF
KPIE 162332Z 1700/1724 33007KT P6SM SCT035 SCT070 BKN250
     FM170100 VRB04KT P6SM FEW020 SCT250
     FM171600 03006KT P6SM VCTS SCT025CB BKN250
     FM172000 31009KT P6SM VCTS FEW035CB BKN060=

USA.gov is the U.S. government's official web portal to all federal, state and local government web resources and services.